createdAt,value
2023-02-24T00:00:34.301Z,14.10
2023-02-24T00:10:50.530Z,13.40
2023-02-24T00:20:56.820Z,14.20
2023-02-24T00:31:08.433Z,12.60
2023-02-24T00:41:17.654Z,13.60
2023-02-24T00:51:24.295Z,14.80
2023-02-24T01:01:33.610Z,14.50
2023-02-24T01:11:57.772Z,10.50
2023-02-24T01:22:04.876Z,13.40
2023-02-24T01:32:14.027Z,13.40
2023-02-24T01:42:22.160Z,12.10
2023-02-24T01:52:30.594Z,12.80
2023-02-24T02:02:33.981Z,13.30
2023-02-24T02:12:44.640Z,12.80
2023-02-24T02:23:19.452Z,10.70
2023-02-24T02:34:08.287Z,10.80
2023-02-24T02:54:32.478Z,9.60
2023-02-24T03:04:35.946Z,8.40
2023-02-24T03:14:51.221Z,7.60
2023-02-24T03:24:55.599Z,5.60
2023-02-24T03:35:17.117Z,5.40
2023-02-24T03:45:23.269Z,5.20
2023-02-24T03:55:35.412Z,4.80
2023-02-24T04:05:53.442Z,4.90
2023-02-24T04:26:08.037Z,4.70
2023-02-24T04:36:13.008Z,4.00
2023-02-24T04:46:20.100Z,4.10
2023-02-24T04:56:23.418Z,3.60
2023-02-24T05:06:26.489Z,3.70
2023-02-24T05:16:29.832Z,4.10
2023-02-24T05:26:37.137Z,4.30
2023-02-24T05:36:40.992Z,23.50
2023-02-24T05:46:47.002Z,17.00
2023-02-24T05:56:50.233Z,12.50
2023-02-24T06:06:53.902Z,9.80
2023-02-24T06:16:59.050Z,7.30
2023-02-24T06:27:09.940Z,6.80
2023-02-24T06:37:15.331Z,7.80
2023-02-24T06:47:18.855Z,8.50
2023-02-24T06:57:23.701Z,18.70
2023-02-24T07:07:26.813Z,9.00
2023-02-24T07:17:30.099Z,8.60
2023-02-24T07:27:34.226Z,11.20
2023-02-24T07:37:37.307Z,11.50
2023-02-24T07:47:44.202Z,11.20
2023-02-24T07:57:48.555Z,11.80
2023-02-24T08:07:53.431Z,11.40
2023-02-24T08:18:00.919Z,12.90
2023-02-24T08:28:11.777Z,11.70
2023-02-24T08:38:18.279Z,12.30
2023-02-24T08:48:32.549Z,11.70
2023-02-24T08:58:47.610Z,10.60
2023-02-24T09:09:21.490Z,9.90
2023-02-24T09:19:40.700Z,9.60
2023-02-24T09:42:47.604Z,11.90
2023-02-24T09:53:00.111Z,9.40
2023-02-24T10:03:41.697Z,9.60
2023-02-24T10:13:52.314Z,8.80
2023-02-24T10:24:14.678Z,8.40
2023-02-24T10:34:21.590Z,7.60
2023-02-24T10:45:02.582Z,8.20
2023-02-24T10:55:45.123Z,8.30
2023-02-24T13:02:00.167Z,9.60
2023-02-24T13:12:07.261Z,8.60
2023-02-24T13:22:12.753Z,8.20
2023-02-24T13:32:33.966Z,13.90
2023-02-24T13:42:37.321Z,8.00
2023-02-24T13:52:56.185Z,6.90
2023-02-24T14:03:00.484Z,6.50
2023-02-24T14:13:15.902Z,6.90
2023-02-24T14:23:32.413Z,6.90
2023-02-24T14:33:38.266Z,7.70
2023-02-24T14:43:42.319Z,5.90
2023-02-24T14:53:59.101Z,6.50
2023-02-24T15:04:32.201Z,5.30
2023-02-24T15:14:35.501Z,6.80
2023-02-24T15:24:39.017Z,7.00
2023-02-24T15:34:46.725Z,9.70
2023-02-24T15:44:55.431Z,7.90
2023-02-24T15:55:02.578Z,7.10
2023-02-24T16:05:06.482Z,6.60
2023-02-24T16:15:17.003Z,7.40
2023-02-24T16:25:20.051Z,6.70
2023-02-24T16:45:47.501Z,7.00
2023-02-24T16:55:52.137Z,9.10
2023-02-24T17:05:55.770Z,11.70
2023-02-24T17:15:59.134Z,11.60
2023-02-24T17:26:03.809Z,12.50
2023-02-24T17:36:07.122Z,11.50
2023-02-24T17:46:10.397Z,15.30
2023-02-24T17:56:14.842Z,17.80
2023-02-24T18:06:19.281Z,13.60
2023-02-24T18:16:22.949Z,16.10
2023-02-24T18:26:27.563Z,13.40
2023-02-24T18:36:31.869Z,13.10
2023-02-24T18:46:37.214Z,11.50
2023-02-24T18:56:40.408Z,9.80
2023-02-24T19:06:49.178Z,9.70
2023-02-24T19:16:52.500Z,8.50
2023-02-24T19:26:56.446Z,9.60
2023-02-24T19:36:59.592Z,8.10
2023-02-24T19:47:03.249Z,9.00
2023-02-24T19:57:10.002Z,8.40
2023-02-24T20:07:15.699Z,8.40
2023-02-24T20:17:19.392Z,12.30
2023-02-24T20:27:22.825Z,11.60
2023-02-24T20:37:26.430Z,9.50
2023-02-24T20:47:29.706Z,10.70
2023-02-24T20:57:32.956Z,12.00
2023-02-24T21:07:40.006Z,11.10
2023-02-24T21:17:43.259Z,8.90
2023-02-24T21:27:48.483Z,8.40
2023-02-24T21:37:51.721Z,8.80
2023-02-24T21:47:55.171Z,10.80
2023-02-24T21:57:58.529Z,8.00
2023-02-24T22:08:22.859Z,7.30
2023-02-24T22:18:27.095Z,7.60
2023-02-24T22:28:37.831Z,8.20
2023-02-24T22:38:48.041Z,8.40
2023-02-24T22:48:52.302Z,10.70
2023-02-24T22:58:56.239Z,10.50
2023-02-24T23:09:01.769Z,11.30
2023-02-24T23:19:11.715Z,11.30
2023-02-24T23:29:17.855Z,10.20
2023-02-24T23:39:24.112Z,9.50
2023-02-24T23:49:36.263Z,9.00
2023-02-24T23:59:53.215Z,7.80
